Time;durP1;ratioP1;P1;durP2;ratioP2;P2;SDS_P1;SDS_P2;PMS_P1;PMS_P2;Temp;Humidity;BMP_temperature;BMP_pressure;BME280_temperature;BME280_humidity;BME280_pressure;Samples;Min_cycle;Max_cycle;Signal;HPM_P1;HPM_P2
2022/07/03 00:00:40;;;;;;;1999.90;999.90;;;;;;;;;;5077192;27;20415;-76
2022/07/03 00:03:08;;;;;;;1999.90;999.90;;;;;;;;;;5073365;27;20417;-76
2022/07/03 00:05:36;;;;;;;1999.90;999.90;;;;;;;;;;5074637;27;20480;-76
2022/07/03 00:08:04;;;;;;;1999.90;999.90;;;;;;;;;;5069016;27;20547;-74
2022/07/03 00:10:34;;;;;;;1999.90;999.90;;;;;;;;;;5059327;27;20417;-74
2022/07/03 00:13:01;;;;;;;1999.90;999.90;;;;;;;;;;5054152;27;20397;-74
2022/07/03 00:15:29;;;;;;;1999.90;999.90;;;;;;;;;;5057200;27;20470;-73
2022/07/03 00:17:57;;;;;;;1999.90;999.90;;;;;;;;;;5063747;27;20397;-74
2022/07/03 00:20:30;;;;;;;1999.90;999.90;;;;;;;;;;5056273;27;20413;-73
2022/07/03 00:23:00;;;;;;;1999.90;999.90;;;;;;;;;;5054380;27;20414;-73
2022/07/03 00:25:28;;;;;;;1999.90;999.90;;;;;;;;;;5058321;27;20470;-72
2022/07/03 00:27:57;;;;;;;1999.90;999.90;;;;;;;;;;5058983;27;20395;-73
2022/07/03 00:30:25;;;;;;;1999.90;999.90;;;;;;;;;;5054843;27;21052;-73
2022/07/03 00:32:53;;;;;;;1999.90;999.90;;;;;;;;;;5077536;27;20422;-73
2022/07/03 00:35:21;;;;;;;1999.90;999.90;;;;;;;;;;5072032;27;20397;-76
2022/07/03 00:37:49;;;;;;;1999.90;999.90;;;;;;;;;;5039887;27;20395;-75
2022/07/03 00:40:17;;;;;;;1999.90;999.90;;;;;;;;;;5055137;27;20425;-75
2022/07/03 00:42:46;;;;;;;1999.90;999.90;;;;;;;;;;5056255;27;20407;-75
2022/07/03 00:45:16;;;;;;;1999.90;999.90;;;;;;;;;;5054859;27;20412;-76
2022/07/03 00:47:44;;;;;;;1999.90;999.90;;;;;;;;;;5057984;27;20399;-73
2022/07/03 00:50:12;;;;;;;1999.90;999.90;;;;;;;;;;5039531;27;20894;-73
2022/07/03 00:52:44;;;;;;;1999.90;999.90;;;;;;;;;;5059513;27;20406;-76
2022/07/03 00:55:17;;;;;;;1999.90;999.90;;;;;;;;;;5061267;27;20405;-73
2022/07/03 00:57:45;;;;;;;1999.90;999.90;;;;;;;;;;5056205;27;20419;-76
2022/07/03 01:00:13;;;;;;;1999.90;999.90;;;;;;;;;;5060690;27;20730;-74
2022/07/03 01:02:49;;;;;;;1999.90;999.90;;;;;;;;;;5055904;27;20417;-73
2022/07/03 01:05:25;;;;;;;1999.90;999.90;;;;;;;;;;5057184;27;20472;-74
2022/07/03 01:07:57;;;;;;;1999.90;999.90;;;;;;;;;;5056118;27;21009;-76
2022/07/03 01:10:36;;;;;;;1999.90;999.90;;;;;;;;;;5040369;27;21026;-74
2022/07/03 01:13:07;;;;;;;1999.90;999.90;;;;;;;;;;5059887;27;20413;-75
2022/07/03 01:15:50;;;;;;;1999.90;999.90;;;;;;;;;;5055337;27;20402;-74
2022/07/03 01:18:28;;;;;;;1999.90;999.90;;;;;;;;;;5060095;27;20406;-74
2022/07/03 01:21:00;;;;;;;1999.90;999.90;;;;;;;;;;5075507;27;21673;-75
2022/07/03 01:23:34;;;;;;;1999.90;999.90;;;;;;;;;;5057272;27;20421;-73
2022/07/03 01:26:05;;;;;;;1999.90;999.90;;;;;;;;;;5057362;27;20384;-73
2022/07/03 01:28:33;;;;;;;1999.90;999.90;;;;;;;;;;5056494;27;20405;-74
2022/07/03 01:31:02;;;;;;;1999.90;999.90;;;;;;;;;;5055870;27;20807;-73
2022/07/03 01:33:33;;;;;;;1999.90;999.90;;;;;;;;;;5059592;27;20406;-74
2022/07/03 01:36:05;;;;;;;1999.90;999.90;;;;;;;;;;5054749;27;20355;-74
2022/07/03 01:38:34;;;;;;;1999.90;999.90;;;;;;;;;;5054496;27;20513;-74
2022/07/03 01:41:02;;;;;;;1999.90;999.90;;;;;;;;;;5058542;27;21613;-74
2022/07/03 01:43:32;;;;;;;1999.90;999.90;;;;;;;;;;5059637;27;20415;-74
2022/07/03 01:46:01;;;;;;;1999.90;999.90;;;;;;;;;;5062380;27;20406;-74
2022/07/03 01:48:30;;;;;;;1999.90;999.90;;;;;;;;;;5055072;27;20425;-74
2022/07/03 01:50:59;;;;;;;1999.90;999.90;;;;;;;;;;5068206;27;21715;-74
2022/07/03 01:53:27;;;;;;;1999.90;999.90;;;;;;;;;;5059073;27;20415;-74
2022/07/03 01:55:56;;;;;;;1999.90;999.90;;;;;;;;;;5058008;27;20420;-74
2022/07/03 01:58:24;;;;;;;1999.90;999.90;;;;;;;;;;5058058;27;20419;-75
2022/07/03 02:00:58;;;;;;;1999.90;999.90;;;;;;;;;;5057989;27;20927;-74
2022/07/03 02:03:29;;;;;;;1999.90;999.90;;;;;;;;;;5040765;27;20559;-75
2022/07/03 02:06:00;;;;;;;1999.90;999.90;;;;;;;;;;5074200;27;20402;-74
2022/07/03 02:08:33;;;;;;;1999.90;999.90;;;;;;;;;;5040283;27;20901;-74
2022/07/03 02:11:08;;;;;;;1999.90;999.90;;;;;;;;;;5059561;27;20411;-74
2022/07/03 02:13:39;;;;;;;1999.90;999.90;;;;;;;;;;5054931;27;20413;-75
2022/07/03 02:16:08;;;;;;;1999.90;999.90;;;;;;;;;;5055549;27;20423;-75
2022/07/03 02:18:37;;;;;;;1999.90;999.90;;;;;;;;;;5037067;27;20489;-75
2022/07/03 02:21:08;;;;;;;1999.90;999.90;;;;;;;;;;5056083;27;20402;-74
2022/07/03 02:23:39;;;;;;;1999.90;999.90;;;;;;;;;;5055636;27;20941;-76
2022/07/03 02:26:09;;;;;;;1999.90;999.90;;;;;;;;;;5055743;27;20852;-75
2022/07/03 02:28:50;;;;;;;1999.90;999.90;;;;;;;;;;5057232;27;20419;-75
2022/07/03 02:31:19;;;;;;;1999.90;999.90;;;;;;;;;;5055943;27;20421;-75
2022/07/03 02:33:48;;;;;;;1999.90;999.90;;;;;;;;;;5054358;27;20712;-76
2022/07/03 02:36:17;;;;;;;1999.90;999.90;;;;;;;;;;5057928;27;20396;-73
2022/07/03 02:38:45;;;;;;;1999.90;999.90;;;;;;;;;;5057397;27;20409;-75
2022/07/03 02:41:15;;;;;;;1999.90;999.90;;;;;;;;;;5057208;27;20399;-75
2022/07/03 02:43:48;;;;;;;1999.90;999.90;;;;;;;;;;5060114;27;20424;-75
2022/07/03 02:49:12;;;;;;;1999.90;999.90;;;;;;;;;;5057940;27;20473;-73
2022/07/03 02:51:41;;;;;;;1999.90;999.90;;;;;;;;;;5039172;27;20862;-75
2022/07/03 02:54:10;;;;;;;1999.90;999.90;;;;;;;;;;5054972;27;20405;-73
2022/07/03 02:56:43;;;;;;;1999.90;999.90;;;;;;;;;;5054360;27;20403;-73
2022/07/03 02:59:17;;;;;;;1999.90;999.90;;;;;;;;;;5057792;27;20393;-73
2022/07/03 03:01:47;;;;;;;1999.90;999.90;;;;;;;;;;5050875;27;20517;-73
2022/07/03 03:04:21;;;;;;;1999.90;999.90;;;;;;;;;;5057664;27;20403;-73
2022/07/03 03:06:54;;;;;;;1999.90;999.90;;;;;;;;;;5055939;27;20383;-74
2022/07/03 03:09:27;;;;;;;1999.90;999.90;;;;;;;;;;5056212;27;21960;-74
2022/07/03 03:11:56;;;;;;;1999.90;999.90;;;;;;;;;;5060183;27;20407;-74
2022/07/03 03:14:26;;;;;;;1999.90;999.90;;;;;;;;;;5055425;27;20405;-74
2022/07/03 03:16:54;;;;;;;1999.90;999.90;;;;;;;;;;5053523;27;20472;-74
2022/07/03 03:19:23;;;;;;;1999.90;999.90;;;;;;;;;;5057210;27;20390;-74
2022/07/03 03:21:57;;;;;;;1999.90;999.90;;;;;;;;;;5053900;27;20389;-74
2022/07/03 03:24:25;;;;;;;1999.90;999.90;;;;;;;;;;5055669;27;20406;-74
2022/07/03 03:26:53;;;;;;;1999.90;999.90;;;;;;;;;;5039156;27;20434;-73
2022/07/03 03:29:21;;;;;;;1999.90;999.90;;;;;;;;;;5054748;27;20433;-74
2022/07/03 03:31:49;;;;;;;1999.90;999.90;;;;;;;;;;5058069;27;20415;-74
2022/07/03 03:34:18;;;;;;;1999.90;999.90;;;;;;;;;;5054272;27;21007;-73
2022/07/03 03:36:47;;;;;;;1999.90;999.90;;;;;;;;;;5055285;27;20410;-73
2022/07/03 03:39:15;;;;;;;1999.90;999.90;;;;;;;;;;5041460;27;20398;-73
2022/07/03 03:41:43;;;;;;;1999.90;999.90;;;;;;;;;;5058131;27;20493;-73
2022/07/03 03:44:10;;;;;;;1999.90;999.90;;;;;;;;;;5053653;27;20415;-76
2022/07/03 03:46:38;;;;;;;1999.90;999.90;;;;;;;;;;5055120;27;20390;-73
2022/07/03 03:49:06;;;;;;;1999.90;999.90;;;;;;;;;;5051451;27;20414;-73
2022/07/03 03:51:34;;;;;;;1999.90;999.90;;;;;;;;;;5054913;27;20400;-72
2022/07/03 03:54:04;;;;;;;1999.90;999.90;;;;;;;;;;5054889;27;20523;-73
2022/07/03 03:56:32;;;;;;;1999.90;999.90;;;;;;;;;;5057553;27;20406;-73
2022/07/03 03:59:00;;;;;;;1999.90;999.90;;;;;;;;;;5054567;27;20403;-73
2022/07/03 04:01:27;;;;;;;1999.90;999.90;;;;;;;;;;5086202;22;20422;-72
2022/07/03 04:03:55;;;;;;;1999.90;999.90;;;;;;;;;;5056771;27;20413;-72
2022/07/03 04:06:23;;;;;;;1999.90;999.90;;;;;;;;;;5056766;27;20405;-71
2022/07/03 04:08:51;;;;;;;1999.90;999.90;;;;;;;;;;5068443;27;20428;-71
2022/07/03 04:11:20;;;;;;;1999.90;999.90;;;;;;;;;;5044494;27;20397;-71
2022/07/03 04:13:49;;;;;;;1999.90;999.90;;;;;;;;;;5050088;27;20428;-70
2022/07/03 04:16:16;;;;;;;1999.90;999.90;;;;;;;;;;5041010;27;20495;-71
2022/07/03 04:18:44;;;;;;;1999.90;999.90;;;;;;;;;;5044362;27;20908;-71
2022/07/03 04:21:13;;;;;;;1999.90;999.90;;;;;;;;;;5045393;27;20494;-70
2022/07/03 04:23:41;;;;;;;1999.90;999.90;;;;;;;;;;5044764;27;20408;-71
2022/07/03 04:26:09;;;;;;;1999.90;999.90;;;;;;;;;;5043429;27;20925;-71
2022/07/03 04:28:44;;;;;;;1999.90;999.90;;;;;;;;;;5043815;27;20883;-71
2022/07/03 04:31:12;;;;;;;1999.90;999.90;;;;;;;;;;5044480;27;20385;-71
2022/07/03 04:33:40;;;;;;;1999.90;999.90;;;;;;;;;;5042609;27;20405;-71
2022/07/03 04:36:14;;;;;;;1999.90;999.90;;;;;;;;;;5045828;27;20410;-71
2022/07/03 04:38:42;;;;;;;1999.90;999.90;;;;;;;;;;5045380;27;20400;-71
2022/07/03 04:41:10;;;;;;;1999.90;999.90;;;;;;;;;;5066315;27;20409;-71
2022/07/03 04:43:38;;;;;;;1999.90;999.90;;;;;;;;;;5066718;27;20418;-71
2022/07/03 04:46:07;;;;;;;1999.90;999.90;;;;;;;;;;5044370;27;20403;-71
2022/07/03 04:48:35;;;;;;;1999.90;999.90;;;;;;;;;;5044458;27;20820;-72
2022/07/03 04:51:02;;;;;;;1999.90;999.90;;;;;;;;;;5030924;27;21423;-71
2022/07/03 04:53:31;;;;;;;1999.90;999.90;;;;;;;;;;5034145;27;20420;-71
2022/07/03 04:55:59;;;;;;;1999.90;999.90;;;;;;;;;;5032791;27;20392;-71
2022/07/03 04:58:26;;;;;;;1999.90;999.90;;;;;;;;;;5034504;27;20491;-70
2022/07/03 05:00:54;;;;;;;1999.90;999.90;;;;;;;;;;5034458;27;20422;-72
2022/07/03 05:03:24;;;;;;;1999.90;999.90;;;;;;;;;;5032613;27;20419;-71
2022/07/03 05:05:52;;;;;;;1999.90;999.90;;;;;;;;;;5034335;27;20424;-72
2022/07/03 05:08:20;;;;;;;1999.90;999.90;;;;;;;;;;5033108;27;20420;-71
2022/07/03 05:10:48;;;;;;;1999.90;999.90;;;;;;;;;;5034677;27;20419;-71
2022/07/03 05:13:16;;;;;;;1999.90;999.90;;;;;;;;;;5035161;27;20422;-72
2022/07/03 05:15:44;;;;;;;1999.90;999.90;;;;;;;;;;5030281;27;20476;-72
2022/07/03 05:18:12;;;;;;;1999.90;999.90;;;;;;;;;;5049204;27;20419;-72
2022/07/03 05:20:46;;;;;;;1999.90;999.90;;;;;;;;;;5037063;27;20385;-70
2022/07/03 05:23:14;;;;;;;1999.90;999.90;;;;;;;;;;5033566;27;20423;-71
2022/07/03 05:25:42;;;;;;;1999.90;999.90;;;;;;;;;;5033665;27;20453;-72
2022/07/03 05:28:10;;;;;;;1999.90;999.90;;;;;;;;;;5033998;27;20525;-72
2022/07/03 05:30:37;;;;;;;1999.90;999.90;;;;;;;;;;5037490;27;20407;-71
2022/07/03 05:33:05;;;;;;;1999.90;999.90;;;;;;;;;;5030422;27;20406;-70
2022/07/03 05:35:33;;;;;;;1999.90;999.90;;;;;;;;;;5032780;27;20454;-71
2022/07/03 05:38:02;;;;;;;1999.90;999.90;;;;;;;;;;5033206;27;20416;-71
2022/07/03 05:40:30;;;;;;;1999.90;999.90;;;;;;;;;;5036185;27;20376;-72
2022/07/03 05:42:58;;;;;;;1999.90;999.90;;;;;;;;;;5051273;27;20408;-71
2022/07/03 05:45:26;;;;;;;1999.90;999.90;;;;;;;;;;5035918;27;20400;-71
2022/07/03 05:47:54;;;;;;;1999.90;999.90;;;;;;;;;;5019628;27;20397;-70
2022/07/03 05:50:22;;;;;;;1999.90;999.90;;;;;;;;;;5023012;27;20495;-71
2022/07/03 05:52:50;;;;;;;1999.90;999.90;;;;;;;;;;5027597;27;20867;-70
2022/07/03 05:55:19;;;;;;;1999.90;999.90;;;;;;;;;;5044730;27;20475;-72
2022/07/03 05:57:47;;;;;;;1999.90;999.90;;;;;;;;;;5060067;27;20396;-71
2022/07/03 06:00:15;;;;;;;1999.90;999.90;;;;;;;;;;5052426;27;20403;-71
2022/07/03 06:02:43;;;;;;;1999.90;999.90;;;;;;;;;;5063298;27;20919;-71
2022/07/03 06:05:10;;;;;;;1999.90;999.90;;;;;;;;;;5054417;27;20403;-71
2022/07/03 06:07:39;;;;;;;1999.90;999.90;;;;;;;;;;5046564;27;20485;-72
2022/07/03 06:10:07;;;;;;;1999.90;999.90;;;;;;;;;;5048746;27;20398;-72
2022/07/03 06:12:36;;;;;;;1999.90;999.90;;;;;;;;;;5051543;27;20415;-72
2022/07/03 06:15:04;;;;;;;1999.90;999.90;;;;;;;;;;5054184;27;20491;-72
2022/07/03 06:17:35;;;;;;;1999.90;999.90;;;;;;;;;;5053765;27;20440;-72
2022/07/03 06:20:03;;;;;;;1999.90;999.90;;;;;;;;;;5067882;27;20498;-72
2022/07/03 06:22:30;;;;;;;1999.90;999.90;;;;;;;;;;5058197;27;20431;-71
2022/07/03 06:24:58;;;;;;;1999.90;999.90;;;;;;;;;;5049716;27;20531;-72
2022/07/03 06:27:26;;;;;;;1999.90;999.90;;;;;;;;;;5052644;27;20878;-72
2022/07/03 06:29:55;;;;;;;1999.90;999.90;;;;;;;;;;5037008;27;20420;-72
2022/07/03 06:32:23;;;;;;;1999.90;999.90;;;;;;;;;;5066967;27;20432;-72
2022/07/03 06:34:52;;;;;;;1999.90;999.90;;;;;;;;;;5053818;27;21081;-73
2022/07/03 06:37:20;;;;;;;1999.90;999.90;;;;;;;;;;5051385;27;20862;-72
2022/07/03 06:39:47;;;;;;;1999.90;999.90;;;;;;;;;;5054139;27;20397;-72
2022/07/03 06:42:15;;;;;;;1999.90;999.90;;;;;;;;;;5046274;27;21401;-70
2022/07/03 06:44:47;;;;;;;1999.90;999.90;;;;;;;;;;5050243;22;20415;-74
2022/07/03 06:47:20;;;;;;;1999.90;999.90;;;;;;;;;;5056165;27;20391;-72
2022/07/03 06:49:48;;;;;;;1999.90;999.90;;;;;;;;;;5039650;27;20422;-74
2022/07/03 06:52:16;;;;;;;1999.90;999.90;;;;;;;;;;5041431;27;20417;-75
2022/07/03 06:54:44;;;;;;;1999.90;999.90;;;;;;;;;;5049912;27;20402;-74
2022/07/03 06:57:12;;;;;;;1999.90;999.90;;;;;;;;;;5050448;27;20473;-76
2022/07/03 06:59:41;;;;;;;1999.90;999.90;;;;;;;;;;5048683;27;20416;-75
2022/07/03 07:02:09;;;;;;;1999.90;999.90;;;;;;;;;;5042181;27;20401;-74
2022/07/03 07:04:38;;;;;;;1999.90;999.90;;;;;;;;;;5031069;27;20869;-75
2022/07/03 07:07:06;;;;;;;1999.90;999.90;;;;;;;;;;5048490;27;20463;-75
2022/07/03 07:09:34;;;;;;;1999.90;999.90;;;;;;;;;;5050212;27;20391;-74
2022/07/03 07:12:02;;;;;;;1999.90;999.90;;;;;;;;;;5057887;27;20430;-74
2022/07/03 07:14:29;;;;;;;1999.90;999.90;;;;;;;;;;5049828;27;21652;-75
2022/07/03 07:16:57;;;;;;;1999.90;999.90;;;;;;;;;;5049292;27;20387;-75
2022/07/03 07:19:25;;;;;;;1999.90;999.90;;;;;;;;;;5052333;27;20414;-77
2022/07/03 07:21:54;;;;;;;1999.90;999.90;;;;;;;;;;5050839;27;20492;-77
2022/07/03 07:24:21;;;;;;;1999.90;999.90;;;;;;;;;;5050554;27;20402;-75
2022/07/03 07:26:49;;;;;;;1999.90;999.90;;;;;;;;;;5026959;27;21329;-75
2022/07/03 07:29:17;;;;;;;1999.90;999.90;;;;;;;;;;5043645;27;20465;-75
2022/07/03 07:31:45;;;;;;;1999.90;999.90;;;;;;;;;;5022053;27;20471;-74
2022/07/03 07:34:13;;;;;;;1999.90;999.90;;;;;;;;;;5047662;27;20403;-76
2022/07/03 07:36:41;;;;;;;1999.90;999.90;;;;;;;;;;5048804;27;20423;-75
2022/07/03 07:39:10;;;;;;;1999.90;999.90;;;;;;;;;;5045682;27;20888;-73
2022/07/03 07:41:38;;;;;;;1999.90;999.90;;;;;;;;;;5049205;27;20415;-76
2022/07/03 07:44:06;;;;;;;1999.90;999.90;;;;;;;;;;5046338;27;20406;-73
2022/07/03 07:46:34;;;;;;;1999.90;999.90;;;;;;;;;;5048320;27;20395;-73
2022/07/03 07:49:01;;;;;;;1999.90;999.90;;;;;;;;;;5043503;27;20413;-74
2022/07/03 07:51:29;;;;;;;1999.90;999.90;;;;;;;;;;5048233;27;20439;-75
2022/07/03 07:53:59;;;;;;;1999.90;999.90;;;;;;;;;;5047908;27;20409;-76
2022/07/03 07:56:28;;;;;;;1999.90;999.90;;;;;;;;;;5049067;27;20492;-77
2022/07/03 07:58:56;;;;;;;1999.90;999.90;;;;;;;;;;5041340;27;20388;-76
2022/07/03 08:06:54;;;;;;;1999.90;999.90;;;;;;;;;;5043386;27;20419;-78
2022/07/03 08:09:22;;;;;;;1999.90;999.90;;;;;;;;;;5045980;27;20413;-77
2022/07/03 08:11:52;;;;;;;1999.90;999.90;;;;;;;;;;5039105;27;20554;-77
2022/07/03 08:14:19;;;;;;;1999.90;999.90;;;;;;;;;;5047534;27;20407;-75
2022/07/03 08:16:47;;;;;;;1999.90;999.90;;;;;;;;;;5050271;27;20421;-74
2022/07/03 08:19:15;;;;;;;1999.90;999.90;;;;;;;;;;5030162;27;20449;-74
2022/07/03 08:21:43;;;;;;;1999.90;999.90;;;;;;;;;;5045916;27;20728;-75
2022/07/03 08:24:12;;;;;;;1999.90;999.90;;;;;;;;;;5043445;27;20430;-77
2022/07/03 08:26:40;;;;;;;1999.90;999.90;;;;;;;;;;5038776;27;20411;-76
2022/07/03 08:29:09;;;;;;;1999.90;999.90;;;;;;;;;;5022225;27;20407;-76
2022/07/03 08:31:37;;;;;;;1999.90;999.90;;;;;;;;;;5021937;27;20399;-74
2022/07/03 08:34:05;;;;;;;1999.90;999.90;;;;;;;;;;5038961;27;20408;-76
2022/07/03 08:36:33;;;;;;;1999.90;999.90;;;;;;;;;;5037630;27;20430;-79
2022/07/03 08:39:00;;;;;;;1999.90;999.90;;;;;;;;;;5044662;27;20769;-76
2022/07/03 08:41:29;;;;;;;1999.90;999.90;;;;;;;;;;5043655;27;20403;-77
2022/07/03 08:43:57;;;;;;;1999.90;999.90;;;;;;;;;;5046091;27;20511;-76
2022/07/03 08:46:26;;;;;;;1999.90;999.90;;;;;;;;;;5047966;27;20419;-78
2022/07/03 08:48:55;;;;;;;1999.90;999.90;;;;;;;;;;5048786;27;20387;-75
2022/07/03 08:51:23;;;;;;;1999.90;999.90;;;;;;;;;;5043887;27;20399;-76
2022/07/03 08:53:54;;;;;;;1999.90;999.90;;;;;;;;;;5048286;27;20538;-77
2022/07/03 08:56:21;;;;;;;1999.90;999.90;;;;;;;;;;5046695;27;20419;-76
2022/07/03 08:58:49;;;;;;;1999.90;999.90;;;;;;;;;;5045955;27;20395;-79
2022/07/03 09:01:18;;;;;;;1999.90;999.90;;;;;;;;;;5029377;27;21324;-76
2022/07/03 09:03:48;;;;;;;1999.90;999.90;;;;;;;;;;5051805;27;20386;-76
2022/07/03 09:06:17;;;;;;;1999.90;999.90;;;;;;;;;;5051216;27;20438;-75
2022/07/03 09:08:46;;;;;;;1999.90;999.90;;;;;;;;;;5050491;27;20391;-78
2022/07/03 09:11:14;;;;;;;1999.90;999.90;;;;;;;;;;5049539;27;20890;-76
2022/07/03 09:13:42;;;;;;;1999.90;999.90;;;;;;;;;;5064408;28;20399;-77
2022/07/03 09:16:14;;;;;;;1999.90;999.90;;;;;;;;;;5049750;27;21095;-75
2022/07/03 09:18:43;;;;;;;1999.90;999.90;;;;;;;;;;5051916;27;20399;-78
2022/07/03 09:21:13;;;;;;;1999.90;999.90;;;;;;;;;;5060871;28;20407;-77
2022/07/03 09:23:41;;;;;;;1999.90;999.90;;;;;;;;;;5046666;27;20387;-76
2022/07/03 09:26:13;;;;;;;1999.90;999.90;;;;;;;;;;5050535;27;20447;-76
2022/07/03 09:28:45;;;;;;;1999.90;999.90;;;;;;;;;;5055079;27;20444;-76
2022/07/03 09:31:13;;;;;;;1999.90;999.90;;;;;;;;;;5056875;27;20921;-78
2022/07/03 09:33:57;;;;;;;1999.90;999.90;;;;;;;;;;5052464;27;20400;-75
2022/07/03 09:36:39;;;;;;;1999.90;999.90;;;;;;;;;;5067938;27;20966;-78
2022/07/03 09:39:17;;;;;;;1999.90;999.90;;;;;;;;;;5048685;27;20928;-76
2022/07/03 09:41:52;;;;;;;1999.90;999.90;;;;;;;;;;5025324;27;20409;-77
2022/07/03 09:44:31;;;;;;;1999.90;999.90;;;;;;;;;;5045846;27;20423;-76
2022/07/03 09:47:09;;;;;;;1999.90;999.90;;;;;;;;;;5047665;27;20867;-76
2022/07/03 09:49:51;;;;;;;1999.90;999.90;;;;;;;;;;5025158;27;20408;-76
2022/07/03 09:52:37;;;;;;;1999.90;999.90;;;;;;;;;;5039303;27;20841;-77
2022/07/03 09:55:15;;;;;;;1999.90;999.90;;;;;;;;;;5042743;27;20406;-77
2022/07/03 09:57:45;;;;;;;1999.90;999.90;;;;;;;;;;5040518;27;20446;-80
2022/07/03 10:00:14;;;;;;;1999.90;999.90;;;;;;;;;;5039200;27;20898;-77
2022/07/03 10:03:01;;;;;;;1999.90;999.90;;;;;;;;;;5041503;27;20411;-76
2022/07/03 10:05:30;;;;;;;1999.90;999.90;;;;;;;;;;5051781;27;20407;-77
2022/07/03 10:08:00;;;;;;;1999.90;999.90;;;;;;;;;;5056699;27;21160;-79
2022/07/03 10:10:29;;;;;;;1999.90;999.90;;;;;;;;;;5040592;27;20403;-78
2022/07/03 10:12:57;;;;;;;1999.90;999.90;;;;;;;;;;5042303;27;20932;-73
2022/07/03 10:15:26;;;;;;;1999.90;999.90;;;;;;;;;;5053332;27;20390;-75
2022/07/03 10:17:54;;;;;;;1999.90;999.90;;;;;;;;;;5040913;27;20430;-76
2022/07/03 10:20:26;;;;;;;1999.90;999.90;;;;;;;;;;5040657;27;20392;-77
2022/07/03 10:22:55;;;;;;;1999.90;999.90;;;;;;;;;;5034478;27;20411;-79
2022/07/03 10:25:26;;;;;;;1999.90;999.90;;;;;;;;;;5042502;27;31347;-76
2022/07/03 10:27:53;;;;;;;1999.90;999.90;;;;;;;;;;5038397;27;20415;-76
2022/07/03 10:30:22;;;;;;;1999.90;999.90;;;;;;;;;;5022027;27;20391;-76
2022/07/03 10:32:50;;;;;;;1999.90;999.90;;;;;;;;;;5046125;27;20411;-77
2022/07/03 10:35:19;;;;;;;1999.90;999.90;;;;;;;;;;5025819;27;20393;-77
2022/07/03 10:37:53;;;;;;;1999.90;999.90;;;;;;;;;;5048108;27;20411;-75
2022/07/03 10:46:11;;;;;;;1999.90;999.90;;;;;;;;;;5049424;27;20387;-76
2022/07/03 10:48:52;;;;;;;1999.90;999.90;;;;;;;;;;5051694;27;20402;-76
2022/07/03 10:51:20;;;;;;;1999.90;999.90;;;;;;;;;;5050221;27;20443;-77
2022/07/03 10:53:48;;;;;;;1999.90;999.90;;;;;;;;;;5051883;27;20414;-76
2022/07/03 10:56:16;;;;;;;1999.90;999.90;;;;;;;;;;5050764;27;20383;-75
2022/07/03 10:59:02;;;;;;;1999.90;999.90;;;;;;;;;;5053253;27;20438;-78
2022/07/03 11:01:32;;;;;;;1999.90;999.90;;;;;;;;;;5034389;27;20401;-77
2022/07/03 11:04:01;;;;;;;1999.90;999.90;;;;;;;;;;5046920;27;20407;-75
2022/07/03 11:06:53;;;;;;;1999.90;999.90;;;;;;;;;;5027239;27;20535;-77
2022/07/03 11:09:22;;;;;;;1999.90;999.90;;;;;;;;;;5020272;27;20656;-76
2022/07/03 11:11:55;;;;;;;1999.90;999.90;;;;;;;;;;5048631;27;21251;-74
2022/07/03 11:14:24;;;;;;;1999.90;999.90;;;;;;;;;;5046215;27;21000;-78
2022/07/03 11:17:06;;;;;;;1999.90;999.90;;;;;;;;;;5047387;27;20415;-75
2022/07/03 11:19:36;;;;;;;1999.90;999.90;;;;;;;;;;5038868;27;20823;-75
2022/07/03 11:22:09;;;;;;;1999.90;999.90;;;;;;;;;;5038981;27;20403;-76
2022/07/03 11:24:39;;;;;;;1999.90;999.90;;;;;;;;;;5042662;27;20446;-73
2022/07/03 11:27:21;;;;;;;1999.90;999.90;;;;;;;;;;5045381;27;20391;-74
2022/07/03 11:29:53;;;;;;;1999.90;999.90;;;;;;;;;;5053031;27;20415;-74
2022/07/03 11:32:40;;;;;;;1999.90;999.90;;;;;;;;;;5044028;27;20400;-74
2022/07/03 11:35:09;;;;;;;1999.90;999.90;;;;;;;;;;5048210;27;20419;-75
2022/07/03 11:37:40;;;;;;;1999.90;999.90;;;;;;;;;;5029626;27;20857;-75
2022/07/03 11:40:08;;;;;;;1999.90;999.90;;;;;;;;;;5038502;27;21611;-75
2022/07/03 11:42:36;;;;;;;1999.90;999.90;;;;;;;;;;5038794;27;20393;-74
2022/07/03 11:45:04;;;;;;;1999.90;999.90;;;;;;;;;;5043057;27;20421;-74
2022/07/03 11:47:33;;;;;;;1999.90;999.90;;;;;;;;;;5049988;27;20387;-74
2022/07/03 11:50:01;;;;;;;1999.90;999.90;;;;;;;;;;5041414;27;21659;-75
2022/07/03 11:52:34;;;;;;;1999.90;999.90;;;;;;;;;;5018692;27;20915;-76
2022/07/03 11:55:01;;;;;;;1999.90;999.90;;;;;;;;;;5044628;27;20837;-74
2022/07/03 11:57:29;;;;;;;1999.90;999.90;;;;;;;;;;5044292;27;21094;-74
2022/07/03 12:00:04;;;;;;;1999.90;999.90;;;;;;;;;;5044635;27;20442;-74
2022/07/03 12:02:49;;;;;;;1999.90;999.90;;;;;;;;;;5046581;27;20411;-73
2022/07/03 12:05:17;;;;;;;1999.90;999.90;;;;;;;;;;5050167;27;20415;-75
2022/07/03 12:08:03;;;;;;;1999.90;999.90;;;;;;;;;;5041152;27;20405;-76
2022/07/03 12:10:38;;;;;;;1999.90;999.90;;;;;;;;;;5028491;27;21327;-76
2022/07/03 12:13:19;;;;;;;1999.90;999.90;;;;;;;;;;5040931;27;20423;-77
2022/07/03 12:15:47;;;;;;;1999.90;999.90;;;;;;;;;;5054874;27;20456;-76
2022/07/03 12:18:15;;;;;;;1999.90;999.90;;;;;;;;;;5055233;27;20397;-77
2022/07/03 12:20:45;;;;;;;1999.90;999.90;;;;;;;;;;5053794;27;20395;-76
2022/07/03 12:23:14;;;;;;;1999.90;999.90;;;;;;;;;;5058156;27;20418;-76
2022/07/03 12:25:42;;;;;;;1999.90;999.90;;;;;;;;;;5055593;27;20407;-78
2022/07/03 12:28:10;;;;;;;1999.90;999.90;;;;;;;;;;5057610;27;20407;-79
2022/07/03 12:30:38;;;;;;;1999.90;999.90;;;;;;;;;;5054372;27;20411;-77
2022/07/03 12:33:07;;;;;;;1999.90;999.90;;;;;;;;;;5058382;27;20428;-75
2022/07/03 12:35:34;;;;;;;1999.90;999.90;;;;;;;;;;5056612;27;20400;-77
2022/07/03 12:38:02;;;;;;;1999.90;999.90;;;;;;;;;;5054734;27;20398;-74
2022/07/03 12:40:32;;;;;;;1999.90;999.90;;;;;;;;;;5048780;27;20470;-79
2022/07/03 12:42:59;;;;;;;1999.90;999.90;;;;;;;;;;5056173;27;20893;-76
2022/07/03 12:45:28;;;;;;;1999.90;999.90;;;;;;;;;;5053698;27;20446;-77
2022/07/03 12:48:00;;;;;;;1999.90;999.90;;;;;;;;;;5056032;27;20402;-75
2022/07/03 12:50:44;;;;;;;1999.90;999.90;;;;;;;;;;5057055;27;20396;-77
2022/07/03 12:53:12;;;;;;;1999.90;999.90;;;;;;;;;;5064667;27;20383;-75
2022/07/03 12:55:45;;;;;;;1999.90;999.90;;;;;;;;;;5057685;27;20906;-77
2022/07/03 13:00:59;;;;;;;1999.90;999.90;;;;;;;;;;5051616;27;20909;-80
2022/07/03 13:03:27;;;;;;;1999.90;999.90;;;;;;;;;;5056148;27;20485;-79
2022/07/03 13:06:13;;;;;;;1999.90;999.90;;;;;;;;;;5056984;27;20398;-77
2022/07/03 13:08:49;;;;;;;1999.90;999.90;;;;;;;;;;5056859;27;20400;-75
2022/07/03 13:11:26;;;;;;;1999.90;999.90;;;;;;;;;;5050920;27;20419;-76
2022/07/03 13:13:55;;;;;;;1999.90;999.90;;;;;;;;;;5058719;27;20399;-77
2022/07/03 13:16:23;;;;;;;1999.90;999.90;;;;;;;;;;5054037;27;20413;-78
2022/07/03 13:18:58;;;;;;;1999.90;999.90;;;;;;;;;;5070168;27;20467;-76
2022/07/03 13:21:26;;;;;;;1999.90;999.90;;;;;;;;;;5050714;27;20974;-78
2022/07/03 13:23:53;;;;;;;1999.90;999.90;;;;;;;;;;5069606;28;20916;-75
2022/07/03 13:26:23;;;;;;;1999.90;999.90;;;;;;;;;;5072472;27;20411;-75
2022/07/03 13:28:50;;;;;;;1999.90;999.90;;;;;;;;;;5060251;27;20407;-75
2022/07/03 13:31:18;;;;;;;1999.90;999.90;;;;;;;;;;5056223;27;20452;-76
2022/07/03 13:33:46;;;;;;;1999.90;999.90;;;;;;;;;;5063971;27;20474;-76
2022/07/03 13:36:16;;;;;;;1999.90;999.90;;;;;;;;;;5060931;27;21896;-77
2022/07/03 13:38:44;;;;;;;1999.90;999.90;;;;;;;;;;5058322;27;20485;-77
2022/07/03 13:41:12;;;;;;;1999.90;999.90;;;;;;;;;;5052890;27;20411;-77
2022/07/03 13:43:41;;;;;;;1999.90;999.90;;;;;;;;;;5037712;27;20415;-74
2022/07/03 13:46:09;;;;;;;1999.90;999.90;;;;;;;;;;5065642;27;20443;-77
2022/07/03 13:48:37;;;;;;;1999.90;999.90;;;;;;;;;;5052035;27;20456;-77
2022/07/03 13:51:05;;;;;;;1999.90;999.90;;;;;;;;;;5060350;27;20517;-77
2022/07/03 13:53:33;;;;;;;1999.90;999.90;;;;;;;;;;5055294;27;20418;-76
2022/07/03 13:56:01;;;;;;;1999.90;999.90;;;;;;;;;;5066981;27;20418;-74
2022/07/03 13:58:29;;;;;;;1999.90;999.90;;;;;;;;;;5055821;27;20391;-76
2022/07/03 14:00:58;;;;;;;1999.90;999.90;;;;;;;;;;5043137;27;20399;-75
2022/07/03 14:03:26;;;;;;;1999.90;999.90;;;;;;;;;;5057730;27;20411;-76
2022/07/03 14:05:54;;;;;;;1999.90;999.90;;;;;;;;;;5059749;27;20791;-75
2022/07/03 14:08:22;;;;;;;1999.90;999.90;;;;;;;;;;5047248;27;21002;-77
2022/07/03 14:10:50;;;;;;;1999.90;999.90;;;;;;;;;;5053572;27;20418;-74
2022/07/03 14:13:17;;;;;;;1999.90;999.90;;;;;;;;;;5060088;27;20885;-77